Time;durP1;ratioP1;P1;durP2;ratioP2;P2;SDS_P1;SDS_P2;PMS_P1;PMS_P2;Temp;Humidity;BMP_temperature;BMP_pressure;BME280_temperature;BME280_humidity;BME280_pressure;Samples;Min_cycle;Max_cycle;Signal;HPM_P1;HPM_P2
2021/08/30 00:00:59;;;;;;;12.93;6.73;;;;;;;15.74;100.00;99100.25;5059599;28;20025;-65
2021/08/30 00:03:25;;;;;;;15.83;6.30;;;;;;;15.75;100.00;99102.00;5058752;28;20024;-65
2021/08/30 00:05:50;;;;;;;16.00;6.47;;;;;;;15.75;100.00;103490.56;5055779;28;20074;-65
2021/08/30 00:08:16;;;;;;;17.17;7.43;;;;;;;15.74;100.00;102474.66;5056638;28;20538;-65
2021/08/30 00:10:41;;;;;;;16.80;6.73;;;;;;;15.75;100.00;100451.75;5056554;28;20543;-65
2021/08/30 00:13:07;;;;;;;13.83;6.70;;;;;;;15.71;100.00;100444.78;5060687;28;20024;-65
2021/08/30 00:15:32;;;;;;;14.63;6.60;;;;;;;15.71;100.00;99095.13;5055179;28;20082;-65
2021/08/30 00:17:58;;;;;;;13.87;6.10;;;;;;;15.69;100.00;102129.06;5056326;28;20029;-65
2021/08/30 00:20:24;;;;;;;14.93;7.10;;;;;;;15.66;100.00;102798.19;5053345;28;20633;-65
2021/08/30 00:22:50;;;;;;;15.70;6.90;;;;;;;15.64;100.00;102457.88;5047720;28;20074;-65
2021/08/30 00:25:15;;;;;;;15.03;7.13;;;;;;;15.66;100.00;102460.53;5051948;28;20027;-65
2021/08/30 00:27:41;;;;;;;13.60;6.07;;;;;;;15.62;100.00;103129.63;5057447;28;20102;-65
2021/08/30 00:30:08;;;;;;;16.53;6.83;;;;;;;15.65;100.00;105836.78;5052663;28;20031;-65
2021/08/30 00:32:34;;;;;;;14.83;6.90;;;;;;;15.64;100.00;107864.25;5056264;28;20288;-65
2021/08/30 00:35:00;;;;;;;15.67;7.03;;;;;;;15.61;100.00;103127.88;5053659;28;20020;-65
2021/08/30 00:37:25;;;;;;;15.53;7.20;;;;;;;15.60;100.00;104477.06;5053775;28;20542;-65
2021/08/30 00:39:51;;;;;;;14.07;6.80;;;;;;;15.60;100.00;107180.56;5055198;28;20024;-65
2021/08/30 00:42:18;;;;;;;13.77;6.57;;;;;;;15.60;100.00;106166.50;5057334;28;20261;-65
2021/08/30 00:44:43;;;;;;;15.50;6.83;;;;;;;15.57;100.00;106498.97;5058752;28;20269;-65
2021/08/30 00:47:09;;;;;;;14.30;7.07;;;;;;;15.58;100.00;105824.88;5052441;28;20036;-65
2021/08/30 00:49:35;;;;;;;16.37;7.10;;;;;;;15.59;100.00;107516.78;5057396;28;20028;-65
2021/08/30 00:52:00;;;;;;;16.67;7.20;;;;;;;15.58;100.00;109205.78;5060322;28;20560;-65
2021/08/30 00:54:29;;;;;;;15.93;7.23;;;;;;;15.59;100.00;108193.03;5058714;28;20020;-65
2021/08/30 00:56:56;;;;;;;19.07;7.97;;;;;;;15.56;100.00;106159.16;5055672;28;20307;-65
2021/08/30 00:59:22;;;;;;;15.07;7.03;;;;;;;15.60;100.00;108194.00;5055135;28;20099;-65
2021/08/30 01:01:48;;;;;;;16.80;7.30;;;;;;;15.57;100.00;107513.06;5042956;28;20545;-66
2021/08/30 01:04:14;;;;;;;14.53;6.53;;;;;;;15.58;100.00;107175.94;5086787;23;20055;-68
2021/08/30 01:06:58;;;;;;;16.43;7.90;;;;;;;15.57;100.00;105485.16;5082485;28;20108;-67
2021/08/30 01:09:36;;;;;;;14.87;8.10;;;;;;;15.60;100.00;106503.59;5073455;28;20041;-68
2021/08/30 01:12:09;;;;;;;15.60;7.17;;;;;;;15.57;100.00;108527.47;5078579;28;20025;-68
2021/08/30 01:14:43;;;;;;;19.40;7.33;;;;;;;15.56;100.00;109877.66;5072200;28;20024;-68
2021/08/30 01:17:09;;;;;;;14.90;6.97;;;;;;;15.57;100.00;111234.00;5063816;28;20025;-68
2021/08/30 01:19:41;;;;;;;16.60;7.90;;;;;;;15.56;100.00;110215.97;5074495;28;20059;-68
2021/08/30 01:22:11;;;;;;;17.20;7.33;;;;;;;15.53;100.00;110888.91;5069209;28;20020;-68
2021/08/30 01:24:37;;;;;;;15.70;7.77;;;;;;;15.53;100.00;112580.28;5080435;28;20023;-68
2021/08/30 01:27:04;;;;;;;15.53;8.13;;;;;;;15.52;100.00;111225.38;5062874;28;20071;-68
2021/08/30 01:30:07;;;;;;;16.00;7.80;;;;;;;15.50;100.00;109528.94;5083075;28;20590;-68
2021/08/30 01:32:41;;;;;;;19.17;7.80;;;;;;;15.47;100.00;111554.19;5073165;28;20504;-68
2021/08/30 01:35:14;;;;;;;17.70;7.40;;;;;;;15.40;100.00;109171.94;5079929;28;20031;-67
2021/08/30 01:37:43;;;;;;;17.60;8.00;;;;;;;15.37;100.00;112210.81;5086078;28;20495;-68
2021/08/30 01:40:10;;;;;;;15.90;7.33;;;;;;;15.38;100.00;114921.25;5085091;28;20024;-68
2021/08/30 01:42:39;;;;;;;22.23;8.77;;;;;;;15.35;100.00;115254.03;5081513;28;20020;-67
2021/08/30 01:45:09;;;;;;;16.77;7.90;;;;;;;15.30;100.00;114228.22;5084122;28;20019;-68
2021/08/30 01:47:36;;;;;;;19.07;8.07;;;;;;;15.23;100.00;115569.84;5077698;28;20495;-68
2021/08/30 01:50:04;;;;;;;17.50;7.93;;;;;;;15.14;100.00;118940.91;5082256;28;20028;-68
2021/08/30 01:52:32;;;;;;;16.37;8.70;;;;;;;15.06;100.00;120279.38;5082476;28;20510;-68
2021/08/30 01:55:10;;;;;;;18.27;8.70;;;;;;;15.08;100.00;121980.19;5085332;28;20055;-67
2021/08/30 02:00:42;;;;;;;17.47;8.33;;;;;;;15.12;100.00;122666.06;5085144;28;20093;-68
2021/08/30 02:00:46;;;;;;;23.57;9.43;;;;;;;15.11;100.00;122325.75;5082794;28;20031;-68
2021/08/30 02:03:24;;;;;;;17.17;8.20;;;;;;;15.12;100.00;121309.13;5069791;28;20077;-68
2021/08/30 02:05:54;;;;;;;20.43;9.40;;;;;;;15.12;100.00;121988.59;5071836;28;20170;-67
2021/08/30 02:08:22;;;;;;;19.63;8.80;;;;;;;15.07;100.00;121299.75;5075622;28;20117;-68
2021/08/30 02:10:50;;;;;;;19.97;8.77;;;;;;;15.04;100.00;122650.25;5069431;28;20592;-68
2021/08/30 02:13:16;;;;;;;18.97;9.07;;;;;;;15.04;100.00;121632.63;5065993;28;20032;-68
2021/08/30 02:15:44;;;;;;;18.50;8.60;;;;;;;15.03;100.00;122308.94;5076425;28;20137;-68
2021/08/30 02:18:51;;;;;;;19.43;8.70;;;;;;;15.01;100.00;121965.50;5084691;28;20055;-68
2021/08/30 02:21:51;;;;;;;19.67;9.30;;;;;;;15.00;100.00;122301.53;5070695;28;20556;-68
2021/08/30 02:24:39;;;;;;;22.70;9.40;;;;;;;14.94;100.00;123307.63;5076208;28;20073;-68
2021/08/30 02:27:30;;;;;;;20.67;8.87;;;;;;;14.94;100.00;123307.63;5070295;28;20046;-67
2021/08/30 02:30:08;;;;;;;21.23;9.87;;;;;;;14.97;100.00;124671.38;5076567;28;20234;-67
2021/08/30 02:32:36;;;;;;;19.40;9.40;;;;;;;15.00;100.00;124676.72;5068387;28;20103;-68
2021/08/30 02:35:05;;;;;;;22.73;9.73;;;;;;;15.00;100.00;124677.78;5081635;28;20032;-68
2021/08/30 02:37:33;;;;;;;20.37;9.37;;;;;;;15.02;100.00;124682.13;5072763;28;20059;-68
2021/08/30 02:40:00;;;;;;;22.07;10.00;;;;;;;15.03;100.00;124684.25;5076206;28;20077;-68
2021/08/30 02:42:29;;;;;;;21.97;10.67;;;;;;;15.05;100.00;124009.69;5074399;28;20035;-68
2021/08/30 02:44:55;;;;;;;26.07;9.97;;;;;;;15.08;100.00;123336.25;5074850;28;20044;-68
2021/08/30 02:47:22;;;;;;;21.53;9.57;;;;;;;15.09;100.00;123000.09;5069892;28;20067;-68
2021/08/30 02:49:49;;;;;;;24.10;9.80;;;;;;;15.10;100.00;122323.63;5072593;28;20085;-67
2021/08/30 02:52:17;;;;;;;24.30;9.77;;;;;;;15.12;100.00;121649.38;5072852;28;20091;-67
2021/08/30 02:54:43;;;;;;;22.53;10.33;;;;;;;15.14;100.00;122332.09;5076073;28;20520;-67
2021/08/30 02:57:10;;;;;;;26.57;10.17;;;;;;;15.10;100.00;121306.00;5074571;28;20492;-67
2021/08/30 02:59:35;;;;;;;27.90;9.57;;;;;;;15.06;100.00;121297.66;5075197;28;20023;-67
2021/08/30 03:02:03;;;;;;;19.67;9.37;;;;;;;15.05;100.00;121294.53;5072255;28;20103;-67
2021/08/30 03:04:32;;;;;;;20.90;9.60;;;;;;;15.07;100.00;122317.34;5066585;28;20118;-67
2021/08/30 03:06:59;;;;;;;23.30;9.60;;;;;;;15.08;100.00;122658.69;5065394;28;20024;-67
2021/08/30 03:09:25;;;;;;;24.37;9.77;;;;;;;15.04;100.00;121632.63;5079541;28;20033;-66
2021/08/30 03:11:53;;;;;;;25.80;9.30;;;;;;;15.02;100.00;121967.63;5077587;28;20026;-67
2021/08/30 03:14:25;;;;;;;23.87;10.47;;;;;;;15.01;100.00;122303.63;5069648;28;20111;-67
2021/08/30 03:16:56;;;;;;;;;;;;;;;15.02;100.00;122985.31;5069825;28;20055;-67
2021/08/30 03:19:23;;;;;;;21.03;9.17;;;;;;;15.05;100.00;122651.31;5070363;28;19912;-67
2021/08/30 03:21:50;;;;;;;22.27;9.40;;;;;;;15.07;100.00;122995.88;5070793;28;20177;-67
2021/08/30 03:24:19;;;;;;;21.53;9.70;;;;;;;15.05;100.00;122312.06;5067009;28;20104;-67
2021/08/30 03:26:47;;;;;;;21.43;9.97;;;;;;;15.05;100.00;121973.91;5068998;28;20032;-67
2021/08/30 03:29:14;;;;;;;21.80;9.40;;;;;;;15.13;100.00;121650.41;5075635;28;20028;-66
2021/08/30 03:31:41;;;;;;;22.13;9.80;;;;;;;15.14;100.00;121313.31;5073265;28;20046;-67
2021/08/30 03:34:07;;;;;;;22.97;9.60;;;;;;;15.13;100.00;120293.84;5084360;28;20032;-67
2021/08/30 03:36:33;;;;;;;25.33;9.67;;;;;;;15.21;100.00;120650.59;5071776;28;20095;-67
2021/08/30 03:39:00;;;;;;;19.77;9.30;;;;;;;15.25;100.00;119980.59;5070198;28;20020;-67
2021/08/30 03:41:26;;;;;;;26.63;9.87;;;;;;;15.25;100.00;119302.41;5080580;28;20725;-67
2021/08/30 03:43:54;;;;;;;21.63;9.57;;;;;;;15.24;100.00;118961.34;5069193;28;20035;-67
2021/08/30 03:46:21;;;;;;;23.67;10.03;;;;;;;15.21;100.00;119294.22;5083558;28;20062;-66
2021/08/30 03:48:46;;;;;;;22.67;9.53;;;;;;;15.12;100.00;118936.75;5079812;28;20024;-66
2021/08/30 03:51:14;;;;;;;22.87;10.30;;;;;;;15.12;100.00;119953.75;5076238;28;20032;-66
2021/08/30 03:53:41;;;;;;;22.47;9.97;;;;;;;15.05;100.00;120956.47;5071915;28;20020;-66
2021/08/30 03:56:09;;;;;;;20.03;8.73;;;;;;;15.00;100.00;121285.13;5075345;28;20051;-66
2021/08/30 03:58:37;;;;;;;21.33;10.40;;;;;;;14.90;100.00;121942.38;5069086;28;20078;-67
2021/08/30 04:01:05;;;;;;;25.90;10.23;;;;;;;14.93;100.00;123984.06;5072685;28;20080;-67
2021/08/30 04:03:35;;;;;;;22.83;9.80;;;;;;;14.94;100.00;124664.94;5078253;28;20748;-67
2021/08/30 04:06:03;;;;;;;21.83;9.67;;;;;;;15.00;100.00;125017.22;5071271;28;20431;-67
2021/08/30 04:08:30;;;;;;;24.87;10.50;;;;;;;15.06;100.00;124351.22;5078438;28;20111;-67
2021/08/30 04:10:57;;;;;;;22.63;10.27;;;;;;;15.08;100.00;123336.25;5072135;28;20111;-66
2021/08/30 04:13:23;;;;;;;23.13;9.97;;;;;;;15.11;100.00;123003.28;5069815;28;20029;-66
2021/08/30 04:15:49;;;;;;;20.77;9.63;;;;;;;15.11;100.00;121647.28;5070923;28;20047;-66
2021/08/30 04:18:14;;;;;;;23.30;10.07;;;;;;;15.10;100.00;121306.00;5075152;28;20108;-67
2021/08/30 04:20:40;;;;;;;21.77;10.23;;;;;;;15.08;100.00;121641.00;5075830;28;20400;-68
2021/08/30 04:23:05;;;;;;;24.03;9.30;;;;;;;15.03;100.00;122307.88;5072528;28;20020;-67
2021/08/30 04:25:31;;;;;;;26.40;10.00;;;;;;;15.03;100.00;123326.72;5068005;28;20027;-67
2021/08/30 04:27:56;;;;;;;28.87;15.20;;;;;;;15.03;100.00;123666.06;5076069;28;20059;-67
2021/08/30 04:30:21;;;;;;;22.80;10.10;;;;;;;15.03;100.00;123666.06;5071898;28;20422;-67
2021/08/30 04:32:47;;;;;;;19.90;9.40;;;;;;;15.02;100.00;122646.06;5069374;28;20028;-67
2021/08/30 04:35:13;;;;;;;24.97;10.07;;;;;;;15.07;100.00;122995.88;5074002;28;20063;-67
2021/08/30 04:37:39;;;;;;;25.40;10.53;;;;;;;15.11;100.00;122665.03;5070723;28;20020;-67
2021/08/30 04:40:06;;;;;;;23.60;9.90;;;;;;;15.10;100.00;122323.63;5073615;28;20024;-67
2021/08/30 04:42:32;;;;;;;22.13;9.97;;;;;;;15.09;100.00;121642.03;5065056;28;20027;-67
2021/08/30 04:44:57;;;;;;;24.03;9.63;;;;;;;15.12;100.00;121309.13;5066940;28;20653;-67
2021/08/30 04:47:23;;;;;;;22.97;10.00;;;;;;;15.14;100.00;120635.00;5072412;28;20471;-68
2021/08/30 04:49:48;;;;;;;21.87;9.53;;;;;;;15.10;100.00;119949.63;5075303;28;20039;-66
2021/08/30 04:52:14;;;;;;;23.60;10.73;;;;;;;15.08;100.00;120623.59;5069251;28;20130;-67
2021/08/30 04:54:39;;;;;;;22.83;9.53;;;;;;;15.09;100.00;120964.78;5076605;28;20186;-67
2021/08/30 04:57:05;;;;;;;24.63;9.67;;;;;;;15.13;100.00;121990.69;5062906;28;20040;-67
2021/08/30 04:59:30;;;;;;;23.13;10.07;;;;;;;15.16;100.00;121657.75;5071866;28;20181;-67
2021/08/30 05:01:56;;;;;;;26.23;10.07;;;;;;;15.16;100.00;120639.19;5062607;28;20058;-67
2021/08/30 05:04:21;;;;;;;24.57;9.93;;;;;;;15.19;100.00;120306.28;5063630;28;20067;-67
2021/08/30 05:06:47;;;;;;;21.33;10.67;;;;;;;15.27;100.00;119983.72;5062909;28;20024;-67
2021/08/30 05:09:12;;;;;;;24.20;10.50;;;;;;;15.33;100.00;118977.75;5063122;28;20029;-67
2021/08/30 05:11:38;;;;;;;23.00;10.40;;;;;;;15.40;100.00;117297.00;5080725;28;20051;-67
2021/08/30 05:14:05;;;;;;;24.60;10.23;;;;;;;15.47;100.00;115955.47;5082789;28;20468;-68
2021/08/30 05:16:30;;;;;;;24.03;10.40;;;;;;;15.53;100.00;114613.19;5066144;28;20040;-68
2021/08/30 05:18:56;;;;;;;24.97;9.93;;;;;;;15.57;100.00;112925.66;5069339;28;20081;-68
2021/08/30 05:21:21;;;;;;;20.60;8.87;;;;;;;15.63;100.00;113615.72;5065722;28;20496;-68
2021/08/30 05:23:50;;;;;;;20.03;9.50;;;;;;;15.62;100.00;111243.59;5065530;28;20445;-68
2021/08/30 05:26:15;;;;;;;23.17;9.30;;;;;;;15.69;100.00;111594.59;5066434;28;20029;-68
2021/08/30 05:28:41;;;;;;;19.43;8.77;;;;;;;15.75;100.00;110253.06;5064691;28;20741;-68
2021/08/30 05:31:07;;;;;;;17.47;8.80;;;;;;;15.80;100.00;108908.88;5066004;28;20107;-68
2021/08/30 05:33:33;;;;;;;18.57;8.30;;;;;;;15.76;100.00;108901.38;5063277;28;20032;-68
2021/08/30 05:35:59;;;;;;;16.33;8.27;;;;;;;15.77;100.00;107550.19;5065903;28;20028;-68
2021/08/30 05:38:24;;;;;;;15.27;7.60;;;;;;;15.74;100.00;109574.28;5062636;28;20028;-68
2021/08/30 05:40:50;;;;;;;19.10;8.87;;;;;;;15.75;100.00;109575.28;5065873;28;20439;-68
2021/08/30 05:43:16;;;;;;;27.80;9.50;;;;;;;15.81;100.00;107219.38;5062631;28;20573;-68
2021/08/30 05:45:41;;;;;;;16.27;7.70;;;;;;;15.85;100.00;107901.41;5064711;28;20409;-68
2021/08/30 05:48:07;;;;;;;18.33;9.20;;;;;;;15.83;100.00;108237.84;5062634;28;20043;-68
2021/08/30 05:50:32;;;;;;;24.37;8.83;;;;;;;15.87;100.00;109596.94;5066745;28;20044;-68
2021/08/30 05:52:57;;;;;;;18.80;8.93;;;;;;;15.87;100.00;109936.41;5062564;28;20078;-68
2021/08/30 05:55:23;;;;;;;18.47;8.10;;;;;;;15.88;100.00;109260.44;5070560;28;20503;-68
2021/08/30 05:57:49;;;;;;;20.30;8.93;;;;;;;15.89;100.00;107233.25;5062313;28;20023;-68
2021/08/30 06:00:15;;;;;;;18.73;8.77;;;;;;;15.92;100.00;108252.75;5075009;28;20061;-68
2021/08/30 06:02:41;;;;;;;16.77;8.87;;;;;;;15.94;100.00;108256.50;5061523;28;20085;-68
2021/08/30 06:05:07;;;;;;;17.60;8.67;;;;;;;16.03;100.00;106243.41;5062331;28;20067;-68
2021/08/30 06:07:33;;;;;;;20.33;8.63;;;;;;;16.04;100.00;105907.03;5062458;28;20411;-68
2021/08/30 06:09:58;;;;;;;15.67;7.80;;;;;;;16.11;100.00;105581.59;5072849;28;20119;-68
2021/08/30 06:12:24;;;;;;;16.53;7.87;;;;;;;16.16;100.00;98494.44;5082482;28;20119;-68
2021/08/30 06:14:49;;;;;;;17.97;7.93;;;;;;;16.19;100.00;99174.69;5081569;28;21445;-68
2021/08/30 06:17:15;;;;;;;16.67;8.53;;;;;;;16.23;100.00;97494.59;5065872;28;20056;-68
2021/08/30 06:19:42;;;;;;;16.67;7.73;;;;;;;16.36;100.00;92456.16;5073396;28;20111;-68
2021/08/30 06:22:09;;;;;;;16.37;7.23;;;;;;;16.44;100.00;91794.00;5077493;28;20032;-68
2021/08/30 06:24:39;;;;;;;16.77;7.63;;;;;;;16.60;100.00;84747.09;5083052;28;20032;-68
2021/08/30 06:27:05;;;;;;;16.33;8.07;;;;;;;16.70;100.00;77366.94;5068673;28;20066;-68
2021/08/30 06:29:30;;;;;;;14.37;7.10;;;;;;;16.88;100.00;73698.59;5072172;28;20117;-68
2021/08/30 06:31:56;;;;;;;18.77;7.30;;;;;;;16.95;100.00;67002.59;5076474;28;20555;-68
2021/08/30 06:34:21;;;;;;;15.03;7.00;;;;;;;17.07;100.00;60657.94;5078558;28;20050;-68
2021/08/30 06:36:47;;;;;;;17.20;6.77;;;;;;;17.06;100.00;60322.56;5065708;28;20039;-68
2021/08/30 06:39:12;;;;;;;14.50;7.30;;;;;;;17.04;100.00;61992.78;5069334;28;20142;-68
2021/08/30 06:41:38;;;;;;;14.47;6.80;;;;;;;17.16;100.00;59664.53;5065417;28;20021;-68
2021/08/30 06:44:04;;;;;;;18.13;7.30;;;;;;;17.10;100.00;58321.53;5068151;28;20028;-68
2021/08/30 06:46:29;;;;;;;15.00;6.23;;;;;;;17.16;100.00;52985.53;5065357;28;20043;-69
2021/08/30 06:48:55;;;;;;;12.93;6.40;;;;;;;17.19;100.00;58331.25;5066427;28;20036;-68
2021/08/30 06:51:21;;;;;;;14.87;6.73;;;;;;;17.25;100.00;51993.09;5067161;28;20119;-67
2021/08/30 06:53:47;;;;;;;15.30;6.23;;;;;;;17.57;100.00;38698.88;5065876;28;20127;-67
2021/08/30 06:56:12;;;;;;;16.73;7.17;;;;;;;17.75;100.00;25104.88;5065261;28;20123;-67
2021/08/30 06:58:38;;;;;;;18.07;7.43;;;;;;;17.58;100.00;24103.97;5066478;28;20044;-67
2021/08/30 07:01:03;;;;;;;16.77;7.90;;;;;;;17.51;100.00;23108.06;5075945;28;20698;-67
2021/08/30 07:03:29;;;;;;;15.33;7.27;;;;;;;17.53;100.00;31391.03;5064978;28;20032;-67
2021/08/30 07:05:54;;;;;;;13.33;7.27;;;;;;;17.39;100.00;40348.41;5065310;28;20056;-67
2021/08/30 07:08:20;;;;;;;14.93;7.53;;;;;;;17.45;100.00;43014.06;5064766;28;20093;-67
2021/08/30 07:10:46;;;;;;;16.80;8.50;;;;;;;17.56;100.00;36039.81;5077828;28;20056;-67
2021/08/30 07:13:11;;;;;;;14.17;6.90;;;;;;;17.53;100.00;50684.19;5065058;28;20040;-67
2021/08/30 07:15:37;;;;;;;19.90;7.77;;;;;;;17.46;100.00;39688.47;5073798;28;20478;-67
2021/08/30 07:18:02;;;;;;;15.20;7.80;;;;;;;17.51;100.00;43684.00;5064451;28;20749;-67
2021/08/30 07:20:28;;;;;;;18.50;7.70;;;;;;;17.45;100.00;51344.19;5072326;28;20047;-67
2021/08/30 07:22:54;;;;;;;14.63;7.40;;;;;;;17.42;100.00;44343.09;5064759;28;20094;-67
2021/08/30 07:25:19;;;;;;;14.07;7.30;;;;;;;17.52;100.00;46349.41;5073610;28;20031;-67
2021/08/30 07:27:45;;;;;;;15.97;7.60;;;;;;;17.33;100.00;50999.75;5070411;28;20028;-67
2021/08/30 07:30:11;;;;;;;17.43;7.53;;;;;;;17.43;100.00;48674.56;5069787;28;20059;-67
2021/08/30 07:32:37;;;;;;;15.33;7.87;;;;;;;17.43;100.00;43678.13;5068073;28;20028;-67
2021/08/30 07:35:02;;;;;;;15.67;8.40;;;;;;;17.46;100.00;42682.03;5073768;28;20069;-67
2021/08/30 07:37:28;;;;;;;15.90;7.43;;;;;;;17.42;100.00;48339.94;5082974;28;20543;-67
2021/08/30 07:39:53;;;;;;;15.83;7.30;;;;;;;17.57;100.00;39363.81;5080137;28;20054;-67
2021/08/30 07:42:19;;;;;;;15.17;7.73;;;;;;;17.60;100.00;43358.09;5080497;28;20055;-67
2021/08/30 07:44:44;;;;;;;16.40;7.47;;;;;;;17.84;100.00;26102.97;5080773;28;20034;-67
2021/08/30 07:47:10;;;;;;;17.73;7.07;;;;;;;17.91;100.00;20147.19;5077848;28;20044;-69
2021/08/30 07:49:36;;;;;;;14.33;7.50;;;;;;;17.92;100.00;16841.50;5075368;28;20081;-69
2021/08/30 07:52:02;;;;;;;14.13;6.97;;;;;;;18.06;100.00;12222.03;5079845;28;20032;-69
2021/08/30 07:54:27;;;;;;;14.45;6.97;;;;;;;18.06;100.00;24125.66;5079025;28;20020;-69
2021/08/30 07:56:53;;;;;;;13.25;6.70;;;;;;;18.06;100.00;15524.41;5080995;28;20032;-68
2021/08/30 07:59:18;;;;;;;13.70;6.63;;;;;;;18.25;100.00;6948.56;5082407;28;20039;-67
2021/08/30 08:01:44;;;;;;;14.38;6.90;;;;;;;18.28;100.00;-7523.34;5078239;28;20405;-67
2021/08/30 08:04:10;;;;;;;12.68;7.15;;;;;;;18.34;100.00;-12781.31;5077071;28;20127;-67
2021/08/30 08:06:35;;;;;;;29.88;7.40;;;;;;;18.28;100.00;-5553.59;5081488;28;20619;-67
2021/08/30 08:09:01;;;;;;;15.32;7.07;;;;;;;18.35;100.00;-14245.66;5075822;28;20039;-67
2021/08/30 08:11:26;;;;;;;14.05;6.60;;;;;;;18.35;100.00;-10727.63;5072672;28;20136;-67
2021/08/30 08:13:52;;;;;;;13.43;6.88;;;;;;;18.31;100.00;-11797.69;5080668;28;20119;-67
2021/08/30 08:16:17;;;;;;;10.77;6.38;;;;;;;18.32;100.00;-11244.72;5077889;28;20024;-67
2021/08/30 08:18:43;;;;;;;13.85;5.97;;;;;;;18.62;100.00;-19649.53;5074708;28;20050;-67
2021/08/30 08:21:09;;;;;;;12.38;6.78;;;;;;;18.87;100.00;-19655.81;5078159;28;20059;-67
2021/08/30 08:23:35;;;;;;;14.85;7.15;;;;;;;18.96;100.00;-19658.16;5078337;28;20031;-67
2021/08/30 08:26:01;;;;;;;13.65;6.43;;;;;;;18.84;100.00;-19655.03;5079798;28;20553;-67
2021/08/30 08:28:26;;;;;;;12.48;6.07;;;;;;;18.75;100.00;-19652.81;5075152;28;20028;-67
2021/08/30 08:30:52;;;;;;;14.00;7.00;;;;;;;18.89;100.00;-19656.47;5068416;28;20098;-67
2021/08/30 08:33:18;;;;;;;18.52;6.55;;;;;;;19.22;100.00;-19664.91;5063421;28;20025;-67
2021/08/30 08:35:44;;;;;;;13.20;6.15;;;;;;;19.42;100.00;-19669.88;5067634;28;20094;-68
2021/08/30 08:38:11;;;;;;;11.15;6.40;;;;;;;19.80;100.00;-19679.75;5063094;28;20632;-68
2021/08/30 08:40:37;;;;;;;10.50;5.97;;;;;;;19.97;100.00;-19683.91;5066021;28;20062;-67
2021/08/30 08:43:10;;;;;;;11.52;5.95;;;;;;;20.18;100.00;-19689.38;5078533;28;20059;-68
2021/08/30 08:45:37;;;;;;;10.05;5.50;;;;;;;20.48;100.00;-19697.19;5079436;28;20024;-68
2021/08/30 08:48:04;;;;;;;11.18;5.75;;;;;;;20.73;100.00;-19703.44;5076736;28;20435;-68
2021/08/30 08:50:30;;;;;;;10.35;5.22;;;;;;;21.04;100.00;-19711.47;5076156;28;20027;-68
2021/08/30 08:52:56;;;;;;;10.57;5.63;;;;;;;20.89;100.00;-19707.59;5069862;28;20024;-69
2021/08/30 08:55:21;;;;;;;10.82;5.68;;;;;;;21.46;100.00;-19722.00;5073348;28;20368;-69
2021/08/30 08:57:47;;;;;;;10.07;4.88;;;;;;;22.05;100.00;-19737.19;5079750;28;20094;-69
2021/08/30 09:00:14;;;;;;;9.07;5.05;;;;;;;22.40;100.00;-19746.00;5080447;28;20487;-70
2021/08/30 09:02:41;;;;;;;12.00;5.32;;;;;;;22.30;100.00;-19743.41;5081898;28;20111;-69
2021/08/30 09:05:22;;;;;;;8.43;5.05;;;;;;;22.32;100.00;-19743.94;5074607;28;20397;-69
2021/08/30 09:07:47;;;;;;;11.57;4.75;;;;;;;22.96;100.00;-19760.38;5076524;28;20562;-69
2021/08/30 09:10:17;;;;;;;9.60;4.57;;;;;;;22.88;100.00;-19758.19;5077984;28;20039;-70
2021/08/30 09:12:44;;;;;;;10.45;4.95;;;;;;;22.49;100.00;-19748.31;5080733;28;20259;-70
2021/08/30 09:15:12;;;;;;;9.32;4.88;;;;;;;22.94;100.00;-19759.75;5076637;28;20024;-70
2021/08/30 09:17:46;;;;;;;9.18;4.32;;;;;;;24.26;100.00;-19793.50;5077495;28;20050;-73
2021/08/30 09:20:14;;;;;;;8.35;4.13;;;;;;;24.75;100.00;-19805.78;5072337;28;20027;-73
2021/08/30 09:22:43;;;;;;;10.05;3.83;;;;;;;24.84;100.00;-19808.13;5067541;28;20099;-74
2021/08/30 09:25:14;;;;;;;15.35;4.90;;;;;;;24.41;100.00;-19797.13;5075392;28;20476;-71
2021/08/30 09:27:47;;;;;;;7.82;4.10;;;;;;;22.67;100.00;-19753.00;5067511;28;20024;-70
2021/08/30 09:30:14;;;;;;;8.98;4.35;;;;;;;22.59;100.00;-19750.91;5069886;28;20132;-70
2021/08/30 09:32:41;;;;;;;9.13;4.80;;;;;;;23.42;100.00;-19771.91;5066752;28;20012;-69
2021/08/30 09:35:08;;;;;;;10.07;4.10;;;;;;;22.59;100.00;-19750.78;5063813;28;20033;-72
2021/08/30 09:37:40;;;;;;;8.48;4.00;;;;;;;21.94;100.00;-19734.44;5062484;28;20055;-69
2021/08/30 09:40:09;;;;;;;8.55;4.47;;;;;;;22.84;100.00;-19757.16;5065452;28;20032;-71
2021/08/30 09:42:34;;;;;;;11.35;4.72;;;;;;;22.57;100.00;-19750.28;5066511;28;20024;-70
2021/08/30 09:45:15;;;;;;;7.15;4.05;;;;;;;22.07;100.00;-19737.69;5074258;28;20032;-70
2021/08/30 09:47:55;;;;;;;8.98;4.60;;;;;;;22.58;100.00;-19750.66;5079446;28;20030;-70
2021/08/30 09:50:33;;;;;;;8.27;4.07;;;;;;;22.72;100.00;-19754.16;5083465;28;20032;-71
2021/08/30 09:53:00;;;;;;;10.30;4.38;;;;;;;22.86;100.00;-19757.66;5081297;28;20031;-70
2021/08/30 09:55:27;;;;;;;9.55;4.50;;;;;;;22.58;100.00;-19750.66;5082010;28;20028;-70
2021/08/30 09:57:53;;;;;;;8.57;3.85;;;;;;;22.19;100.00;-19740.69;5083794;28;20030;-69
2021/08/30 10:00:21;;;;;;;7.88;4.10;;;;;;;21.83;100.00;-19731.59;5083625;28;20044;-69
2021/08/30 10:02:50;;;;;;;8.30;3.92;;;;;;;21.43;100.00;-19721.34;5081183;28;20107;-68
2021/08/30 10:05:16;;;;;;;8.23;4.38;;;;;;;21.39;100.00;-19720.19;5081112;28;20039;-68
2021/08/30 10:07:44;;;;;;;6.75;3.92;;;;;;;21.65;100.00;-19727.06;5081127;28;20099;-68
2021/08/30 10:10:10;;;;;;;14.07;5.95;;;;;;;21.48;100.00;-19722.66;5079861;28;20393;-69
2021/08/30 10:12:37;;;;;;;9.27;4.60;;;;;;;21.40;100.00;-19720.56;5077108;28;20102;-69
2021/08/30 10:15:04;;;;;;;9.93;5.30;;;;;;;21.43;100.00;-19721.22;5076394;28;20034;-69
2021/08/30 10:17:29;;;;;;;15.02;5.07;;;;;;;21.49;100.00;-19722.91;5075189;28;20024;-68
2021/08/30 10:19:57;;;;;;;7.75;4.35;;;;;;;22.23;100.00;-19741.84;5073761;28;20032;-68
2021/08/30 10:22:23;;;;;;;8.48;4.03;;;;;;;22.25;100.00;-19742.09;5074929;28;20028;-69
2021/08/30 10:24:49;;;;;;;7.80;4.03;;;;;;;22.21;100.00;-19741.34;5076639;28;20040;-69
2021/08/30 10:27:15;;;;;;;10.15;4.63;;;;;;;22.58;100.00;-19750.66;5069836;28;20384;-69
2021/08/30 10:29:43;;;;;;;7.80;3.97;;;;;;;22.22;100.00;-19741.59;5069667;28;20093;-70
2021/08/30 10:32:22;;;;;;;8.43;4.05;;;;;;;22.93;100.00;-19759.47;5072558;28;20107;-69
2021/08/30 10:34:54;;;;;;;9.25;4.00;;;;;;;24.16;100.00;-19790.94;5076319;28;20103;-70
2021/08/30 10:37:20;;;;;;;6.88;3.42;;;;;;;24.38;100.00;-19796.50;5071232;28;20028;-69
2021/08/30 10:39:53;;;;;;;9.65;3.33;;;;;;;24.45;100.00;-19798.28;5067851;28;20035;-69
2021/08/30 10:42:19;;;;;;;5.22;3.10;;;;;;;24.29;100.00;-19794.03;5072271;28;20045;-70
2021/08/30 10:44:56;;;;;;;6.18;3.20;;;;;;;24.25;100.00;-19793.13;5074135;28;20040;-69
2021/08/30 10:47:32;;;;;;;6.03;3.13;;;;;;;23.46;100.00;-19773.06;5075391;28;20028;-69
2021/08/30 10:49:57;;;;;;;6.13;3.42;;;;;;;22.88;100.00;-19758.19;5074335;28;20502;-69
2021/08/30 10:52:23;;;;;;;8.77;3.80;;;;;;;21.94;100.00;-19734.44;5075772;28;20044;-69
2021/08/30 10:54:53;;;;;;;7.75;3.50;;;;;;;21.18;100.00;-19714.84;5070726;28;20028;-69
2021/08/30 10:57:22;;;;;;;6.60;3.78;;;;;;;20.99;100.00;-19710.19;5070086;28;20035;-69
2021/08/30 10:59:58;;;;;;;8.82;4.07;;;;;;;20.19;100.00;-19689.78;5080709;28;20028;-68
2021/08/30 11:02:45;;;;;;;9.25;3.75;;;;;;;19.98;100.00;-19684.19;5066238;28;20527;-68
2021/08/30 11:05:11;;;;;;;11.73;4.38;;;;;;;19.61;100.00;-19674.81;5071738;28;20050;-68
2021/08/30 11:07:37;;;;;;;7.60;4.10;;;;;;;19.35;100.00;-19668.19;5073079;28;20169;-68
2021/08/30 11:10:05;;;;;;;9.70;3.90;;;;;;;19.23;100.00;-19665.19;5072117;28;20478;-68
2021/08/30 11:12:30;;;;;;;10.00;4.30;;;;;;;19.38;100.00;-19668.81;5074723;28;20024;-68
2021/08/30 11:14:57;;;;;;;8.57;4.40;;;;;;;19.44;100.00;-19670.38;5074407;28;20058;-68